Terminal Aerodrome Forecast
Issued by NWS Jackson, MS

Home | Current Version | Previous Version | Text Only | Print | Product List | Glossary On
Versions: 1 2 3 4 5 6 7 8 9 10 11 12 13 14 15 16
000
FTUS44 KJAN 231121
TAFJAN
TAF
KJAN 231121Z 2312/2412 32013G23KT P6SM OVC022
     FM231400 32011G20KT P6SM OVC015
     FM232300 32006KT P6SM BKN015
     FM240200 33003KT P6SM SKC=

USA.gov is the U.S. government's official web portal to all federal, state and local government web resources and services.